sensor_id;sensor_type;location;lat;lon;timestamp;temperature;humidity
30381;DHT22;17169;50.966;11.038;2024-03-22T00:00:35;7.40;99.90
30381;DHT22;17169;50.966;11.038;2024-03-22T00:03:36;7.40;99.90
30381;DHT22;17169;50.966;11.038;2024-03-22T00:06:38;7.40;99.90
30381;DHT22;17169;50.966;11.038;2024-03-22T00:09:40;7.40;99.90
30381;DHT22;17169;50.966;11.038;2024-03-22T00:12:43;7.40;99.90
30381;DHT22;17169;50.966;11.038;2024-03-22T00:15:44;7.40;99.90
30381;DHT22;17169;50.966;11.038;2024-03-22T00:18:47;7.40;99.90
30381;DHT22;17169;50.966;11.038;2024-03-22T00:21:48;7.40;99.90
30381;DHT22;17169;50.966;11.038;2024-03-22T00:24:50;7.40;99.90
30381;DHT22;17169;50.966;11.038;2024-03-22T00:27:53;7.40;99.90
30381;DHT22;17169;50.966;11.038;2024-03-22T00:30:55;7.40;99.90
30381;DHT22;17169;50.966;11.038;2024-03-22T00:33:57;7.50;99.90
30381;DHT22;17169;50.966;11.038;2024-03-22T00:36:59;7.40;99.90
30381;DHT22;17169;50.966;11.038;2024-03-22T00:40:01;7.30;99.90
30381;DHT22;17169;50.966;11.038;2024-03-22T00:43:04;7.30;99.90
30381;DHT22;17169;50.966;11.038;2024-03-22T00:46:06;7.30;99.90
30381;DHT22;17169;50.966;11.038;2024-03-22T00:49:09;7.30;99.90
30381;DHT22;17169;50.966;11.038;2024-03-22T00:52:10;7.30;99.90
30381;DHT22;17169;50.966;11.038;2024-03-22T00:55:12;7.30;99.90
30381;DHT22;17169;50.966;11.038;2024-03-22T00:58:15;7.30;99.90
30381;DHT22;17169;50.966;11.038;2024-03-22T01:01:17;7.30;99.90
30381;DHT22;17169;50.966;11.038;2024-03-22T01:04:19;7.30;99.90
30381;DHT22;17169;50.966;11.038;2024-03-22T01:07:20;7.30;99.90
30381;DHT22;17169;50.966;11.038;2024-03-22T01:10:23;7.30;99.90
30381;DHT22;17169;50.966;11.038;2024-03-22T01:13:25;7.40;99.90
30381;DHT22;17169;50.966;11.038;2024-03-22T01:16:27;7.40;99.90
30381;DHT22;17169;50.966;11.038;2024-03-22T01:19:30;7.40;99.90
30381;DHT22;17169;50.966;11.038;2024-03-22T01:22:31;7.40;99.90
30381;DHT22;17169;50.966;11.038;2024-03-22T01:25:33;7.50;99.90
30381;DHT22;17169;50.966;11.038;2024-03-22T01:28:36;7.50;99.90
30381;DHT22;17169;50.966;11.038;2024-03-22T01:31:38;7.60;99.90
30381;DHT22;17169;50.966;11.038;2024-03-22T01:34:39;7.60;99.90
30381;DHT22;17169;50.966;11.038;2024-03-22T01:37:41;7.60;99.90
30381;DHT22;17169;50.966;11.038;2024-03-22T01:40:43;7.70;99.90
30381;DHT22;17169;50.966;11.038;2024-03-22T01:43:46;7.70;99.90
30381;DHT22;17169;50.966;11.038;2024-03-22T01:46:48;7.70;99.90
30381;DHT22;17169;50.966;11.038;2024-03-22T01:49:51;7.70;99.90
30381;DHT22;17169;50.966;11.038;2024-03-22T01:52:56;7.70;99.90
30381;DHT22;17169;50.966;11.038;2024-03-22T01:55:58;7.80;99.90
30381;DHT22;17169;50.966;11.038;2024-03-22T01:59:01;7.80;99.90
30381;DHT22;17169;50.966;11.038;2024-03-22T02:02:03;7.80;99.90
30381;DHT22;17169;50.966;11.038;2024-03-22T02:05:12;7.80;99.90
30381;DHT22;17169;50.966;11.038;2024-03-22T02:08:14;7.80;99.90
30381;DHT22;17169;50.966;11.038;2024-03-22T02:11:16;7.80;99.90
30381;DHT22;17169;50.966;11.038;2024-03-22T02:14:19;7.70;99.90
30381;DHT22;17169;50.966;11.038;2024-03-22T02:17:21;7.70;99.90
30381;DHT22;17169;50.966;11.038;2024-03-22T02:20:22;7.70;99.90
30381;DHT22;17169;50.966;11.038;2024-03-22T02:23:31;7.60;99.90
30381;DHT22;17169;50.966;11.038;2024-03-22T02:26:33;7.60;99.90
30381;DHT22;17169;50.966;11.038;2024-03-22T02:29:35;7.70;99.90
30381;DHT22;17169;50.966;11.038;2024-03-22T02:32:36;7.70;99.90
30381;DHT22;17169;50.966;11.038;2024-03-22T02:35:40;7.70;99.90
30381;DHT22;17169;50.966;11.038;2024-03-22T02:38:43;7.60;99.90
30381;DHT22;17169;50.966;11.038;2024-03-22T02:41:45;7.70;99.90
30381;DHT22;17169;50.966;11.038;2024-03-22T02:44:46;7.70;99.90
30381;DHT22;17169;50.966;11.038;2024-03-22T02:47:48;7.70;99.90
30381;DHT22;17169;50.966;11.038;2024-03-22T02:50:49;7.80;99.90
30381;DHT22;17169;50.966;11.038;2024-03-22T02:53:58;7.80;99.90
30381;DHT22;17169;50.966;11.038;2024-03-22T02:56:59;7.80;99.90
30381;DHT22;17169;50.966;11.038;2024-03-22T03:00:03;7.80;99.90
30381;DHT22;17169;50.966;11.038;2024-03-22T03:03:06;7.80;99.90
30381;DHT22;17169;50.966;11.038;2024-03-22T03:06:08;7.80;99.90
30381;DHT22;17169;50.966;11.038;2024-03-22T03:09:11;7.70;99.90
30381;DHT22;17169;50.966;11.038;2024-03-22T03:12:13;7.70;99.90
30381;DHT22;17169;50.966;11.038;2024-03-22T03:15:15;7.70;99.90
30381;DHT22;17169;50.966;11.038;2024-03-22T03:18:17;7.70;99.90
30381;DHT22;17169;50.966;11.038;2024-03-22T03:21:19;7.70;99.90
30381;DHT22;17169;50.966;11.038;2024-03-22T03:24:23;7.60;99.90
30381;DHT22;17169;50.966;11.038;2024-03-22T03:27:25;7.60;99.90
30381;DHT22;17169;50.966;11.038;2024-03-22T03:30:26;7.50;99.90
30381;DHT22;17169;50.966;11.038;2024-03-22T03:33:29;7.50;99.90
30381;DHT22;17169;50.966;11.038;2024-03-22T03:36:30;7.50;99.90
30381;DHT22;17169;50.966;11.038;2024-03-22T03:39:34;7.50;99.90
30381;DHT22;17169;50.966;11.038;2024-03-22T03:42:35;7.50;99.90
30381;DHT22;17169;50.966;11.038;2024-03-22T03:45:37;7.50;99.90
30381;DHT22;17169;50.966;11.038;2024-03-22T03:48:39;7.50;99.90
30381;DHT22;17169;50.966;11.038;2024-03-22T03:51:41;7.40;99.90
30381;DHT22;17169;50.966;11.038;2024-03-22T03:54:43;7.40;99.90
30381;DHT22;17169;50.966;11.038;2024-03-22T03:57:46;7.40;99.90
30381;DHT22;17169;50.966;11.038;2024-03-22T04:00:47;7.50;99.90
30381;DHT22;17169;50.966;11.038;2024-03-22T04:03:49;7.50;99.90
30381;DHT22;17169;50.966;11.038;2024-03-22T04:06:50;7.50;99.90
30381;DHT22;17169;50.966;11.038;2024-03-22T04:09:54;7.50;99.90
30381;DHT22;17169;50.966;11.038;2024-03-22T04:12:57;7.60;99.90
30381;DHT22;17169;50.966;11.038;2024-03-22T04:15:59;7.50;99.90
30381;DHT22;17169;50.966;11.038;2024-03-22T04:19:01;7.50;99.90
30381;DHT22;17169;50.966;11.038;2024-03-22T04:22:02;7.60;99.90
30381;DHT22;17169;50.966;11.038;2024-03-22T04:25:07;7.60;99.90
30381;DHT22;17169;50.966;11.038;2024-03-22T04:28:09;7.60;99.90
30381;DHT22;17169;50.966;11.038;2024-03-22T04:31:12;7.60;99.90
30381;DHT22;17169;50.966;11.038;2024-03-22T04:34:13;7.60;99.90
30381;DHT22;17169;50.966;11.038;2024-03-22T04:37:16;7.60;99.90
30381;DHT22;17169;50.966;11.038;2024-03-22T04:40:19;7.60;99.90
30381;DHT22;17169;50.966;11.038;2024-03-22T04:43:23;7.60;99.90
30381;DHT22;17169;50.966;11.038;2024-03-22T04:46:25;7.60;99.90
30381;DHT22;17169;50.966;11.038;2024-03-22T04:49:27;7.60;99.90
30381;DHT22;17169;50.966;11.038;2024-03-22T04:52:29;7.70;99.90
30381;DHT22;17169;50.966;11.038;2024-03-22T04:55:34;7.70;99.90
30381;DHT22;17169;50.966;11.038;2024-03-22T04:58:35;7.80;99.90
30381;DHT22;17169;50.966;11.038;2024-03-22T05:01:37;7.90;99.90
30381;DHT22;17169;50.966;11.038;2024-03-22T05:04:38;8.00;99.90
30381;DHT22;17169;50.966;11.038;2024-03-22T05:07:41;8.20;99.90
30381;DHT22;17169;50.966;11.038;2024-03-22T05:10:43;8.30;99.90
30381;DHT22;17169;50.966;11.038;2024-03-22T05:13:45;8.40;99.90
30381;DHT22;17169;50.966;11.038;2024-03-22T05:16:47;8.50;99.90
30381;DHT22;17169;50.966;11.038;2024-03-22T05:19:49;8.70;99.90
30381;DHT22;17169;50.966;11.038;2024-03-22T05:22:51;8.80;99.90
30381;DHT22;17169;50.966;11.038;2024-03-22T05:25:55;8.80;99.90
30381;DHT22;17169;50.966;11.038;2024-03-22T05:28:56;8.90;99.90
30381;DHT22;17169;50.966;11.038;2024-03-22T05:31:58;9.00;99.90
30381;DHT22;17169;50.966;11.038;2024-03-22T05:35:01;9.10;99.90
30381;DHT22;17169;50.966;11.038;2024-03-22T05:38:03;9.10;99.90
30381;DHT22;17169;50.966;11.038;2024-03-22T05:41:06;9.10;99.90
30381;DHT22;17169;50.966;11.038;2024-03-22T05:44:08;9.20;99.90
30381;DHT22;17169;50.966;11.038;2024-03-22T05:47:10;9.10;99.90
30381;DHT22;17169;50.966;11.038;2024-03-22T05:50:11;9.10;99.90
30381;DHT22;17169;50.966;11.038;2024-03-22T05:53:15;9.10;99.90
30381;DHT22;17169;50.966;11.038;2024-03-22T05:56:19;9.00;99.90
30381;DHT22;17169;50.966;11.038;2024-03-22T05:59:20;9.00;99.90
30381;DHT22;17169;50.966;11.038;2024-03-22T06:02:23;9.00;99.90
30381;DHT22;17169;50.966;11.038;2024-03-22T06:05:24;9.00;99.90
30381;DHT22;17169;50.966;11.038;2024-03-22T06:08:26;8.90;99.90
30381;DHT22;17169;50.966;11.038;2024-03-22T06:11:30;9.00;99.90
30381;DHT22;17169;50.966;11.038;2024-03-22T06:14:31;9.00;99.90
30381;DHT22;17169;50.966;11.038;2024-03-22T06:17:34;9.10;99.90
30381;DHT22;17169;50.966;11.038;2024-03-22T06:20:35;9.30;99.90
30381;DHT22;17169;50.966;11.038;2024-03-22T06:23:37;9.40;99.90
30381;DHT22;17169;50.966;11.038;2024-03-22T06:26:41;9.50;99.90
30381;DHT22;17169;50.966;11.038;2024-03-22T06:29:42;9.60;99.90
30381;DHT22;17169;50.966;11.038;2024-03-22T06:32:44;9.70;99.90
30381;DHT22;17169;50.966;11.038;2024-03-22T06:35:46;9.80;99.90
30381;DHT22;17169;50.966;11.038;2024-03-22T06:38:48;10.00;99.90
30381;DHT22;17169;50.966;11.038;2024-03-22T06:41:52;10.00;99.90
30381;DHT22;17169;50.966;11.038;2024-03-22T06:44:53;10.10;99.90
30381;DHT22;17169;50.966;11.038;2024-03-22T06:47:55;10.20;99.90
30381;DHT22;17169;50.966;11.038;2024-03-22T06:50:57;10.20;99.90
30381;DHT22;17169;50.966;11.038;2024-03-22T06:53:59;10.30;99.90
30381;DHT22;17169;50.966;11.038;2024-03-22T06:57:03;10.30;99.90
30381;DHT22;17169;50.966;11.038;2024-03-22T07:00:05;10.40;99.90
30381;DHT22;17169;50.966;11.038;2024-03-22T07:03:11;10.40;99.90
30381;DHT22;17169;50.966;11.038;2024-03-22T07:06:14;10.50;99.90
30381;DHT22;17169;50.966;11.038;2024-03-22T07:09:16;10.50;99.90
30381;DHT22;17169;50.966;11.038;2024-03-22T07:12:19;10.60;99.90
30381;DHT22;17169;50.966;11.038;2024-03-22T07:15:22;10.70;99.90
30381;DHT22;17169;50.966;11.038;2024-03-22T07:18:23;10.80;99.90
30381;DHT22;17169;50.966;11.038;2024-03-22T07:21:26;10.90;99.90
30381;DHT22;17169;50.966;11.038;2024-03-22T07:24:28;11.00;99.90
30381;DHT22;17169;50.966;11.038;2024-03-22T07:27:31;11.00;99.90
30381;DHT22;17169;50.966;11.038;2024-03-22T07:30:33;11.20;99.90
30381;DHT22;17169;50.966;11.038;2024-03-22T07:33:36;11.30;99.90
30381;DHT22;17169;50.966;11.038;2024-03-22T07:36:40;11.40;99.90
30381;DHT22;17169;50.966;11.038;2024-03-22T07:39:41;11.40;99.90
30381;DHT22;17169;50.966;11.038;2024-03-22T07:42:45;11.50;99.90
30381;DHT22;17169;50.966;11.038;2024-03-22T07:45:47;11.60;99.90
30381;DHT22;17169;50.966;11.038;2024-03-22T07:48:48;11.70;99.90
30381;DHT22;17169;50.966;11.038;2024-03-22T07:51:50;11.80;99.90
30381;DHT22;17169;50.966;11.038;2024-03-22T07:54:51;11.80;99.90
30381;DHT22;17169;50.966;11.038;2024-03-22T07:57:55;11.90;99.90
30381;DHT22;17169;50.966;11.038;2024-03-22T08:00:58;12.00;99.90
30381;DHT22;17169;50.966;11.038;2024-03-22T08:03:59;12.10;99.90
30381;DHT22;17169;50.966;11.038;2024-03-22T08:07:02;12.10;99.90
30381;DHT22;17169;50.966;11.038;2024-03-22T08:10:04;12.20;99.90
30381;DHT22;17169;50.966;11.038;2024-03-22T08:13:07;12.30;99.90
30381;DHT22;17169;50.966;11.038;2024-03-22T08:16:10;12.40;99.90
30381;DHT22;17169;50.966;11.038;2024-03-22T08:19:11;12.50;99.90
30381;DHT22;17169;50.966;11.038;2024-03-22T08:22:13;12.60;99.90
30381;DHT22;17169;50.966;11.038;2024-03-22T08:25:15;12.70;99.90
30381;DHT22;17169;50.966;11.038;2024-03-22T08:28:19;12.90;99.90
30381;DHT22;17169;50.966;11.038;2024-03-22T08:31:21;13.00;99.90
30381;DHT22;17169;50.966;11.038;2024-03-22T08:34:26;13.00;99.90
30381;DHT22;17169;50.966;11.038;2024-03-22T08:37:27;13.10;99.90
30381;DHT22;17169;50.966;11.038;2024-03-22T08:40:30;13.20;99.90
30381;DHT22;17169;50.966;11.038;2024-03-22T08:43:32;13.20;99.90
30381;DHT22;17169;50.966;11.038;2024-03-22T08:46:34;13.20;99.90
30381;DHT22;17169;50.966;11.038;2024-03-22T08:49:36;13.30;99.90
30381;DHT22;17169;50.966;11.038;2024-03-22T08:52:39;13.40;99.90
30381;DHT22;17169;50.966;11.038;2024-03-22T08:55:45;13.50;99.90
30381;DHT22;17169;50.966;11.038;2024-03-22T08:58:49;13.60;99.90
30381;DHT22;17169;50.966;11.038;2024-03-22T09:01:52;13.70;99.90
30381;DHT22;17169;50.966;11.038;2024-03-22T09:04:54;13.80;99.90
30381;DHT22;17169;50.966;11.038;2024-03-22T09:07:56;13.80;99.90
30381;DHT22;17169;50.966;11.038;2024-03-22T09:10:59;13.90;99.90
30381;DHT22;17169;50.966;11.038;2024-03-22T09:14:01;14.00;99.90
30381;DHT22;17169;50.966;11.038;2024-03-22T09:17:04;14.00;99.90
30381;DHT22;17169;50.966;11.038;2024-03-22T09:20:06;14.10;99.90
30381;DHT22;17169;50.966;11.038;2024-03-22T09:23:09;14.20;99.90
30381;DHT22;17169;50.966;11.038;2024-03-22T09:26:10;14.30;99.90
30381;DHT22;17169;50.966;11.038;2024-03-22T09:29:14;14.40;99.50
30381;DHT22;17169;50.966;11.038;2024-03-22T09:32:15;14.50;99.60
30381;DHT22;17169;50.966;11.038;2024-03-22T09:35:18;14.70;99.40
30381;DHT22;17169;50.966;11.038;2024-03-22T09:38:19;14.80;99.50
30381;DHT22;17169;50.966;11.038;2024-03-22T09:41:24;14.90;99.30
30381;DHT22;17169;50.966;11.038;2024-03-22T09:44:27;15.00;99.10
30381;DHT22;17169;50.966;11.038;2024-03-22T09:47:30;15.00;99.00
30381;DHT22;17169;50.966;11.038;2024-03-22T09:50:32;15.00;99.10
30381;DHT22;17169;50.966;11.038;2024-03-22T09:53:34;15.00;99.40
30381;DHT22;17169;50.966;11.038;2024-03-22T09:56:38;15.00;99.30
30381;DHT22;17169;50.966;11.038;2024-03-22T09:59:42;15.10;99.30
30381;DHT22;17169;50.966;11.038;2024-03-22T10:02:46;15.10;99.10
30381;DHT22;17169;50.966;11.038;2024-03-22T10:05:47;15.20;99.30
30381;DHT22;17169;50.966;11.038;2024-03-22T10:08:50;15.30;99.30
30381;DHT22;17169;50.966;11.038;2024-03-22T10:11:51;15.40;99.20
30381;DHT22;17169;50.966;11.038;2024-03-22T10:14:55;15.40;99.30
30381;DHT22;17169;50.966;11.038;2024-03-22T10:17:57;15.50;99.20
30381;DHT22;17169;50.966;11.038;2024-03-22T10:21:00;15.60;99.20
30381;DHT22;17169;50.966;11.038;2024-03-22T10:24:02;15.70;99.20
30381;DHT22;17169;50.966;11.038;2024-03-22T10:27:05;15.70;99.10
30381;DHT22;17169;50.966;11.038;2024-03-22T10:30:09;15.80;99.10
30381;DHT22;17169;50.966;11.038;2024-03-22T10:33:12;15.90;99.00
30381;DHT22;17169;50.966;11.038;2024-03-22T10:36:14;16.00;99.00
30381;DHT22;17169;50.966;11.038;2024-03-22T10:39:18;16.00;99.10
30381;DHT22;17169;50.966;11.038;2024-03-22T10:42:19;16.00;99.20
30381;DHT22;17169;50.966;11.038;2024-03-22T10:45:23;16.10;99.30
30381;DHT22;17169;50.966;11.038;2024-03-22T10:48:29;16.10;99.10
30381;DHT22;17169;50.966;11.038;2024-03-22T10:51:32;16.20;99.20
30381;DHT22;17169;50.966;11.038;2024-03-22T10:54:40;16.20;99.10
30381;DHT22;17169;50.966;11.038;2024-03-22T10:57:43;16.20;99.10
30381;DHT22;17169;50.966;11.038;2024-03-22T11:00:46;16.20;99.20
30381;DHT22;17169;50.966;11.038;2024-03-22T11:03:48;16.20;99.30
30381;DHT22;17169;50.966;11.038;2024-03-22T11:06:50;16.30;99.40
30381;DHT22;17169;50.966;11.038;2024-03-22T11:09:52;16.30;99.10
30381;DHT22;17169;50.966;11.038;2024-03-22T11:12:53;16.40;99.30
30381;DHT22;17169;50.966;11.038;2024-03-22T11:15:58;16.40;99.10
30381;DHT22;17169;50.966;11.038;2024-03-22T11:19:00;16.50;99.10
30381;DHT22;17169;50.966;11.038;2024-03-22T11:22:05;16.60;99.10
30381;DHT22;17169;50.966;11.038;2024-03-22T11:25:07;16.60;98.90
30381;DHT22;17169;50.966;11.038;2024-03-22T11:28:10;16.60;99.00
30381;DHT22;17169;50.966;11.038;2024-03-22T11:31:12;16.50;99.00
30381;DHT22;17169;50.966;11.038;2024-03-22T11:34:15;16.50;99.10
30381;DHT22;17169;50.966;11.038;2024-03-22T11:37:16;16.50;99.30
30381;DHT22;17169;50.966;11.038;2024-03-22T11:40:18;16.60;99.20
30381;DHT22;17169;50.966;11.038;2024-03-22T11:43:20;16.60;99.10
30381;DHT22;17169;50.966;11.038;2024-03-22T11:46:24;16.80;98.90
30381;DHT22;17169;50.966;11.038;2024-03-22T11:49:26;16.80;98.70
30381;DHT22;17169;50.966;11.038;2024-03-22T11:52:28;16.90;98.40
30381;DHT22;17169;50.966;11.038;2024-03-22T11:55:31;16.90;98.10
30381;DHT22;17169;50.966;11.038;2024-03-22T11:58:32;16.90;98.00
30381;DHT22;17169;50.966;11.038;2024-03-22T12:01:36;16.90;98.00
30381;DHT22;17169;50.966;11.038;2024-03-22T12:04:41;16.90;97.70
30381;DHT22;17169;50.966;11.038;2024-03-22T12:07:44;16.90;98.00
30381;DHT22;17169;50.966;11.038;2024-03-22T12:10:46;17.00;97.80
30381;DHT22;17169;50.966;11.038;2024-03-22T12:13:48;17.00;97.70
30381;DHT22;17169;50.966;11.038;2024-03-22T12:16:51;16.90;97.60
30381;DHT22;17169;50.966;11.038;2024-03-22T12:19:54;17.00;97.80
30381;DHT22;17169;50.966;11.038;2024-03-22T12:22:55;17.00;97.80
30381;DHT22;17169;50.966;11.038;2024-03-22T12:25:58;17.10;97.80
30381;DHT22;17169;50.966;11.038;2024-03-22T12:28:59;17.30;98.30
30381;DHT22;17169;50.966;11.038;2024-03-22T12:32:03;17.50;97.50
30381;DHT22;17169;50.966;11.038;2024-03-22T12:35:05;17.40;97.20
30381;DHT22;17169;50.966;11.038;2024-03-22T12:38:09;17.50;97.20
30381;DHT22;17169;50.966;11.038;2024-03-22T12:41:13;17.30;97.20
30381;DHT22;17169;50.966;11.038;2024-03-22T12:44:15;17.20;97.20
30381;DHT22;17169;50.966;11.038;2024-03-22T12:47:18;17.30;97.20
30381;DHT22;17169;50.966;11.038;2024-03-22T12:50:20;17.10;97.30
30381;DHT22;17169;50.966;11.038;2024-03-22T12:53:21;17.00;97.30
30381;DHT22;17169;50.966;11.038;2024-03-22T12:56:23;16.80;97.30
30381;DHT22;17169;50.966;11.038;2024-03-22T12:59:25;16.70;97.60
30381;DHT22;17169;50.966;11.038;2024-03-22T13:02:29;16.60;97.90
30381;DHT22;17169;50.966;11.038;2024-03-22T13:05:30;16.60;98.00
30381;DHT22;17169;50.966;11.038;2024-03-22T13:08:32;16.50;98.10
30381;DHT22;17169;50.966;11.038;2024-03-22T13:11:34;16.40;98.10
30381;DHT22;17169;50.966;11.038;2024-03-22T13:14:36;16.40;98.40
30381;DHT22;17169;50.966;11.038;2024-03-22T13:17:39;16.40;98.40
30381;DHT22;17169;50.966;11.038;2024-03-22T13:20:41;16.40;98.30
30381;DHT22;17169;50.966;11.038;2024-03-22T13:23:42;16.50;98.00
30381;DHT22;17169;50.966;11.038;2024-03-22T13:26:44;16.50;98.10
30381;DHT22;17169;50.966;11.038;2024-03-22T13:29:46;16.50;98.00
30381;DHT22;17169;50.966;11.038;2024-03-22T13:32:49;16.40;98.00
30381;DHT22;17169;50.966;11.038;2024-03-22T13:35:51;16.40;98.00
30381;DHT22;17169;50.966;11.038;2024-03-22T13:38:53;16.50;98.30
30381;DHT22;17169;50.966;11.038;2024-03-22T13:41:55;16.40;98.10
30381;DHT22;17169;50.966;11.038;2024-03-22T13:44:56;16.40;98.20
30381;DHT22;17169;50.966;11.038;2024-03-22T13:48:00;16.50;98.10
30381;DHT22;17169;50.966;11.038;2024-03-22T13:51:11;16.50;98.20
30381;DHT22;17169;50.966;11.038;2024-03-22T13:54:13;16.50;97.90
30381;DHT22;17169;50.966;11.038;2024-03-22T13:57:15;16.60;97.90
30381;DHT22;17169;50.966;11.038;2024-03-22T14:00:17;16.50;97.90
30381;DHT22;17169;50.966;11.038;2024-03-22T14:03:20;16.50;98.00
30381;DHT22;17169;50.966;11.038;2024-03-22T14:06:22;16.40;98.00
30381;DHT22;17169;50.966;11.038;2024-03-22T14:09:24;16.40;98.10
30381;DHT22;17169;50.966;11.038;2024-03-22T14:12:27;16.40;98.10
30381;DHT22;17169;50.966;11.038;2024-03-22T14:15:29;16.40;98.20
30381;DHT22;17169;50.966;11.038;2024-03-22T14:18:34;16.40;98.20
30381;DHT22;17169;50.966;11.038;2024-03-22T14:21:37;16.40;98.30
30381;DHT22;17169;50.966;11.038;2024-03-22T14:24:39;16.40;98.40
30381;DHT22;17169;50.966;11.038;2024-03-22T14:27:41;16.40;98.40
30381;DHT22;17169;50.966;11.038;2024-03-22T14:30:46;16.40;98.50
30381;DHT22;17169;50.966;11.038;2024-03-22T14:33:50;16.40;98.60
30381;DHT22;17169;50.966;11.038;2024-03-22T14:36:51;16.50;98.50
30381;DHT22;17169;50.966;11.038;2024-03-22T14:39:53;16.50;98.40
30381;DHT22;17169;50.966;11.038;2024-03-22T14:42:54;16.40;98.30
30381;DHT22;17169;50.966;11.038;2024-03-22T14:45:57;16.40;98.40
30381;DHT22;17169;50.966;11.038;2024-03-22T14:49:00;16.40;98.40
30381;DHT22;17169;50.966;11.038;2024-03-22T14:52:01;16.40;98.30
30381;DHT22;17169;50.966;11.038;2024-03-22T14:55:04;16.50;98.30
30381;DHT22;17169;50.966;11.038;2024-03-22T14:58:06;16.50;98.20
30381;DHT22;17169;50.966;11.038;2024-03-22T15:01:08;16.50;98.30
30381;DHT22;17169;50.966;11.038;2024-03-22T15:04:13;16.50;98.20
30381;DHT22;17169;50.966;11.038;2024-03-22T15:07:15;16.50;98.10
30381;DHT22;17169;50.966;11.038;2024-03-22T15:10:16;16.50;98.10
30381;DHT22;17169;50.966;11.038;2024-03-22T15:13:20;16.50;98.10
30381;DHT22;17169;50.966;11.038;2024-03-22T15:16:22;16.50;98.10
30381;DHT22;17169;50.966;11.038;2024-03-22T15:19:25;16.50;98.20
30381;DHT22;17169;50.966;11.038;2024-03-22T15:22:27;16.50;98.30
30381;DHT22;17169;50.966;11.038;2024-03-22T15:25:28;16.50;98.20
30381;DHT22;17169;50.966;11.038;2024-03-22T15:28:31;16.50;98.00
30381;DHT22;17169;50.966;11.038;2024-03-22T15:31:32;16.50;97.60
30381;DHT22;17169;50.966;11.038;2024-03-22T15:34:36;16.50;97.20
30381;DHT22;17169;50.966;11.038;2024-03-22T15:37:38;16.50;97.00
30381;DHT22;17169;50.966;11.038;2024-03-22T15:40:40;16.50;96.70
30381;DHT22;17169;50.966;11.038;2024-03-22T15:43:43;16.40;96.50
30381;DHT22;17169;50.966;11.038;2024-03-22T15:46:45;16.40;96.40
30381;DHT22;17169;50.966;11.038;2024-03-22T15:49:49;16.40;96.40
30381;DHT22;17169;50.966;11.038;2024-03-22T15:52:51;16.40;96.30
30381;DHT22;17169;50.966;11.038;2024-03-22T15:55:53;16.40;96.40
30381;DHT22;17169;50.966;11.038;2024-03-22T15:58:55;16.40;96.70
30381;DHT22;17169;50.966;11.038;2024-03-22T16:01:56;16.30;96.50
30381;DHT22;17169;50.966;11.038;2024-03-22T16:05:00;16.20;96.50
30381;DHT22;17169;50.966;11.038;2024-03-22T16:08:01;16.20;96.70
30381;DHT22;17169;50.966;11.038;2024-03-22T16:11:03;16.20;96.70
30381;DHT22;17169;50.966;11.038;2024-03-22T16:14:05;16.20;96.80
30381;DHT22;17169;50.966;11.038;2024-03-22T16:17:07;16.10;97.30
30381;DHT22;17169;50.966;11.038;2024-03-22T16:20:11;16.10;97.50
30381;DHT22;17169;50.966;11.038;2024-03-22T16:23:13;16.10;97.60
30381;DHT22;17169;50.966;11.038;2024-03-22T16:26:15;16.00;97.70
30381;DHT22;17169;50.966;11.038;2024-03-22T16:29:18;16.00;97.80
30381;DHT22;17169;50.966;11.038;2024-03-22T16:32:20;16.00;97.90
30381;DHT22;17169;50.966;11.038;2024-03-22T16:35:24;15.90;98.00
30381;DHT22;17169;50.966;11.038;2024-03-22T16:38:25;15.90;97.80
30381;DHT22;17169;50.966;11.038;2024-03-22T16:41:28;15.80;97.20
30381;DHT22;17169;50.966;11.038;2024-03-22T16:44:30;15.90;97.00
30381;DHT22;17169;50.966;11.038;2024-03-22T16:47:31;15.80;97.20
30381;DHT22;17169;50.966;11.038;2024-03-22T16:50:35;15.70;97.20
30381;DHT22;17169;50.966;11.038;2024-03-22T16:53:36;15.70;97.30
30381;DHT22;17169;50.966;11.038;2024-03-22T16:56:38;15.70;96.90
30381;DHT22;17169;50.966;11.038;2024-03-22T16:59:40;15.70;96.50
30381;DHT22;17169;50.966;11.038;2024-03-22T17:02:42;15.70;95.70
30381;DHT22;17169;50.966;11.038;2024-03-22T17:05:45;15.60;95.20
30381;DHT22;17169;50.966;11.038;2024-03-22T17:08:47;15.50;95.40
30381;DHT22;17169;50.966;11.038;2024-03-22T17:11:49;15.40;95.30
30381;DHT22;17169;50.966;11.038;2024-03-22T17:14:51;15.40;95.20
30381;DHT22;17169;50.966;11.038;2024-03-22T17:17:53;15.30;95.50
30381;DHT22;17169;50.966;11.038;2024-03-22T17:20:55;15.30;95.10
30381;DHT22;17169;50.966;11.038;2024-03-22T17:23:58;15.20;95.10
30381;DHT22;17169;50.966;11.038;2024-03-22T17:27:00;15.20;95.10
30381;DHT22;17169;50.966;11.038;2024-03-22T17:30:02;15.20;95.20
30381;DHT22;17169;50.966;11.038;2024-03-22T17:33:05;15.20;95.30
30381;DHT22;17169;50.966;11.038;2024-03-22T17:36:09;15.20;95.40
30381;DHT22;17169;50.966;11.038;2024-03-22T17:39:10;15.20;95.50
30381;DHT22;17169;50.966;11.038;2024-03-22T17:42:12;15.20;95.30
30381;DHT22;17169;50.966;11.038;2024-03-22T17:45:13;15.10;95.40
30381;DHT22;17169;50.966;11.038;2024-03-22T17:48:16;15.10;95.50
30381;DHT22;17169;50.966;11.038;2024-03-22T17:51:19;15.00;95.60
30381;DHT22;17169;50.966;11.038;2024-03-22T17:54:22;15.00;95.70
30381;DHT22;17169;50.966;11.038;2024-03-22T17:57:26;14.90;95.80
30381;DHT22;17169;50.966;11.038;2024-03-22T18:00:28;14.90;96.20
30381;DHT22;17169;50.966;11.038;2024-03-22T18:03:30;14.80;96.20
30381;DHT22;17169;50.966;11.038;2024-03-22T18:06:33;14.80;96.30
30381;DHT22;17169;50.966;11.038;2024-03-22T18:09:35;14.70;96.70
30381;DHT22;17169;50.966;11.038;2024-03-22T18:12:37;14.70;96.70
30381;DHT22;17169;50.966;11.038;2024-03-22T18:15:40;14.60;96.90
30381;DHT22;17169;50.966;11.038;2024-03-22T18:18:41;14.50;97.10
30381;DHT22;17169;50.966;11.038;2024-03-22T18:21:45;14.50;97.30
30381;DHT22;17169;50.966;11.038;2024-03-22T18:24:47;14.40;97.40
30381;DHT22;17169;50.966;11.038;2024-03-22T18:27:50;14.30;97.60
30381;DHT22;17169;50.966;11.038;2024-03-22T18:30:51;14.30;97.70
30381;DHT22;17169;50.966;11.038;2024-03-22T18:33:53;14.20;97.90
30381;DHT22;17169;50.966;11.038;2024-03-22T18:36:56;14.20;97.90
30381;DHT22;17169;50.966;11.038;2024-03-22T18:39:58;14.10;98.10
30381;DHT22;17169;50.966;11.038;2024-03-22T18:43:00;14.10;98.30
30381;DHT22;17169;50.966;11.038;2024-03-22T18:46:02;14.00;98.40
30381;DHT22;17169;50.966;11.038;2024-03-22T18:49:04;14.00;98.70
30381;DHT22;17169;50.966;11.038;2024-03-22T18:52:08;13.90;98.70
30381;DHT22;17169;50.966;11.038;2024-03-22T18:55:09;13.90;98.90
30381;DHT22;17169;50.966;11.038;2024-03-22T18:58:12;13.80;99.10